createdAt,value
2018-12-07T00:00:10.513Z,1.63
2018-12-07T00:02:37.121Z,1.60
2018-12-07T00:05:03.958Z,1.43
2018-12-07T00:07:30.592Z,1.33
2018-12-07T00:09:57.229Z,1.50
2018-12-07T00:12:24.002Z,2.00
2018-12-07T00:14:50.711Z,1.70
2018-12-07T00:17:17.316Z,1.60
2018-12-07T00:19:47.879Z,1.40
2018-12-07T00:22:12.689Z,1.27
2018-12-07T00:24:39.293Z,1.53
2018-12-07T00:27:05.907Z,1.40
2018-12-07T00:29:32.597Z,1.33
2018-12-07T00:31:59.237Z,1.50
2018-12-07T00:34:25.880Z,1.30
2018-12-07T00:36:52.488Z,1.33
2018-12-07T00:39:19.120Z,1.43
2018-12-07T00:41:45.726Z,1.50
2018-12-07T00:44:12.430Z,1.90
2018-12-07T00:46:39.045Z,1.47
2018-12-07T00:49:05.677Z,3.00
2018-12-07T00:51:32.348Z,1.83
2018-12-07T00:53:58.988Z,1.50
2018-12-07T00:56:25.721Z,1.60
2018-12-07T00:58:52.369Z,1.40
2018-12-07T01:01:19.016Z,1.60
2018-12-07T01:03:45.649Z,2.23
2018-12-07T01:06:12.289Z,1.73
2018-12-07T01:08:38.920Z,2.40
2018-12-07T01:11:05.563Z,1.50
2018-12-07T01:13:32.165Z,1.80
2018-12-07T01:15:58.841Z,2.13
2018-12-07T01:18:25.448Z,3.13
2018-12-07T01:20:52.057Z,2.17
2018-12-07T01:23:18.752Z,2.13
2018-12-07T01:25:45.356Z,1.63
2018-12-07T01:28:12.036Z,1.60
2018-12-07T01:30:38.648Z,2.30
2018-12-07T01:33:05.313Z,2.83
2018-12-07T01:35:31.921Z,1.53
2018-12-07T01:37:58.584Z,1.20
2018-12-07T01:40:25.227Z,1.90
2018-12-07T01:42:51.860Z,2.37
2018-12-07T01:45:18.500Z,1.53
2018-12-07T01:47:45.161Z,1.40
2018-12-07T01:50:11.816Z,1.20
2018-12-07T01:52:38.450Z,1.30
2018-12-07T01:55:05.161Z,1.40
2018-12-07T01:57:31.801Z,1.93
2018-12-07T01:59:58.452Z,5.87
2018-12-07T02:02:25.057Z,2.30
2018-12-07T02:04:51.673Z,1.57
2018-12-07T02:07:24.301Z,3.13
2018-12-07T02:09:50.941Z,1.83
2018-12-07T02:12:17.549Z,2.40
2018-12-07T02:14:44.181Z,1.47
2018-12-07T02:17:10.861Z,1.27
2018-12-07T02:19:37.596Z,3.17
2018-12-07T02:22:04.205Z,1.40
2018-12-07T02:24:30.873Z,1.30
2018-12-07T02:26:57.508Z,1.07
2018-12-07T02:29:24.156Z,1.10
2018-12-07T02:31:50.809Z,1.63
2018-12-07T02:34:17.433Z,1.20
2018-12-07T02:36:44.069Z,1.33
2018-12-07T02:39:10.705Z,0.90
2018-12-07T02:41:37.348Z,1.20
2018-12-07T02:44:04.082Z,1.03
2018-12-07T02:46:30.692Z,3.03
2018-12-07T02:48:57.360Z,0.97
2018-12-07T02:51:24.023Z,1.10
2018-12-07T02:53:50.749Z,1.67
2018-12-07T02:56:18.092Z,1.00
2018-12-07T02:58:44.759Z,1.40
2018-12-07T03:01:11.486Z,0.83
2018-12-07T03:03:38.301Z,1.10
2018-12-07T03:06:04.960Z,2.00
2018-12-07T03:08:31.596Z,1.43
2018-12-07T03:10:58.236Z,1.20
2018-12-07T03:13:24.884Z,1.20
2018-12-07T03:15:51.516Z,2.03
2018-12-07T03:18:30.855Z,1.67
2018-12-07T03:20:57.596Z,2.30
2018-12-07T03:23:24.341Z,2.43
2018-12-07T03:25:50.979Z,1.00
2018-12-07T03:28:17.646Z,1.10
2018-12-07T03:30:44.321Z,1.60
2018-12-07T03:33:10.923Z,1.23
2018-12-07T03:35:37.610Z,2.80
2018-12-07T03:38:04.273Z,1.43
2018-12-07T03:40:30.923Z,1.50
2018-12-07T03:42:57.586Z,1.73
2018-12-07T03:45:24.292Z,3.47
2018-12-07T03:47:50.897Z,1.80
2018-12-07T03:50:17.539Z,1.40
2018-12-07T03:52:45.131Z,1.30
2018-12-07T03:55:11.878Z,2.60
2018-12-07T03:57:38.962Z,1.93
2018-12-07T04:00:06.081Z,2.20
2018-12-07T04:02:32.707Z,1.40
2018-12-07T04:04:59.376Z,1.20
2018-12-07T04:07:26.073Z,1.20
2018-12-07T04:09:52.830Z,1.37
2018-12-07T04:12:19.472Z,1.67
2018-12-07T04:14:46.153Z,1.47
2018-12-07T04:17:12.855Z,8.00
2018-12-07T04:19:39.601Z,1.30
2018-12-07T04:22:06.237Z,1.57
2018-12-07T04:24:32.869Z,1.30
2018-12-07T04:26:59.482Z,1.63
2018-12-07T04:29:26.157Z,1.50
2018-12-07T04:31:52.893Z,1.67
2018-12-07T04:34:19.528Z,1.73
2018-12-07T04:36:46.145Z,1.20
2018-12-07T04:39:12.909Z,2.13
2018-12-07T04:41:39.544Z,1.27
2018-12-07T04:44:06.235Z,1.50
2018-12-07T04:46:32.959Z,1.50
2018-12-07T04:48:59.593Z,2.37
2018-12-07T04:51:26.194Z,1.20
2018-12-07T04:53:52.872Z,2.07
2018-12-07T04:56:19.584Z,1.13
2018-12-07T04:58:46.193Z,2.00
2018-12-07T05:01:12.885Z,1.30
2018-12-07T05:03:39.505Z,1.37
2018-12-07T05:06:06.145Z,2.30
2018-12-07T05:08:32.781Z,1.50
2018-12-07T05:10:59.461Z,2.60
2018-12-07T05:13:26.169Z,1.60
2018-12-07T05:15:52.907Z,1.77
2018-12-07T05:18:19.545Z,1.40
2018-12-07T05:20:46.289Z,1.63
2018-12-07T05:23:12.928Z,1.37
2018-12-07T05:25:39.565Z,1.43
2018-12-07T05:28:06.190Z,1.60
2018-12-07T05:30:32.815Z,1.47
2018-12-07T05:32:59.421Z,1.67
2018-12-07T05:35:26.054Z,1.97
2018-12-07T05:37:52.680Z,2.30
2018-12-07T05:40:19.393Z,5.13
2018-12-07T05:42:46.040Z,2.10
2018-12-07T05:45:12.680Z,1.83
2018-12-07T05:47:39.369Z,6.00
2018-12-07T05:50:07.926Z,6.20
2018-12-07T05:52:34.643Z,2.30
2018-12-07T05:55:01.272Z,3.07
2018-12-07T05:57:27.913Z,2.80
2018-12-07T05:59:54.557Z,3.13
2018-12-07T06:02:21.611Z,3.73
2018-12-07T06:04:48.217Z,4.23
2018-12-07T06:07:14.884Z,4.80
2018-12-07T06:09:41.525Z,4.87
2018-12-07T06:12:08.164Z,6.70
2018-12-07T06:14:34.806Z,6.90
2018-12-07T06:17:01.737Z,6.00
2018-12-07T06:19:28.376Z,10.87
2018-12-07T06:21:55.025Z,7.93
2018-12-07T06:24:21.657Z,7.00
2018-12-07T06:26:48.296Z,5.70
2018-12-07T06:29:14.909Z,6.27
2018-12-07T06:31:41.584Z,7.03
2018-12-07T06:34:08.286Z,5.03
2018-12-07T06:36:34.960Z,6.70
2018-12-07T06:39:01.596Z,5.90
2018-12-07T06:41:28.334Z,7.97
2018-12-07T06:43:54.986Z,6.13
2018-12-07T06:46:21.712Z,6.30
2018-12-07T06:48:54.394Z,8.43
2018-12-07T06:51:21.036Z,11.63
2018-12-07T06:53:47.673Z,9.10
2018-12-07T06:56:14.324Z,10.60
2018-12-07T06:58:41.053Z,8.63
2018-12-07T07:01:07.696Z,9.93
2018-12-07T07:03:34.332Z,7.93
2018-12-07T07:06:01.182Z,7.78
2018-12-07T07:08:27.924Z,7.40
2018-12-07T07:10:54.524Z,10.40
2018-12-07T07:13:21.466Z,8.97
2018-12-07T07:15:48.140Z,12.50
2018-12-07T07:18:14.782Z,11.83
2018-12-07T07:20:41.469Z,7.00
2018-12-07T07:23:08.160Z,8.77
2018-12-07T07:25:34.804Z,11.47
2018-12-07T07:28:01.537Z,9.77
2018-12-07T07:30:28.187Z,12.37
2018-12-07T07:32:55.177Z,10.27
2018-12-07T07:35:21.870Z,5.70
2018-12-07T07:37:48.510Z,10.23
2018-12-07T07:40:15.116Z,8.87
2018-12-07T07:42:41.755Z,5.87
2018-12-07T07:45:08.368Z,8.40
2018-12-07T07:47:34.981Z,9.33
2018-12-07T07:50:02.090Z,8.30
2018-12-07T07:52:28.713Z,9.47
2018-12-07T07:54:55.448Z,9.90
2018-12-07T07:57:22.082Z,5.47
2018-12-07T07:59:48.717Z,5.37
2018-12-07T08:02:15.324Z,8.70
2018-12-07T08:04:42.048Z,5.93
2018-12-07T08:07:08.715Z,8.63
2018-12-07T08:09:35.340Z,4.80
2018-12-07T08:12:01.953Z,4.93
2018-12-07T08:14:28.577Z,7.67
2018-12-07T08:16:55.193Z,12.53
2018-12-07T08:19:21.882Z,7.47
2018-12-07T08:21:48.505Z,10.67
2018-12-07T08:24:15.138Z,14.30
2018-12-07T08:26:41.747Z,7.60
2018-12-07T08:29:08.382Z,12.73
2018-12-07T08:31:35.037Z,9.07
2018-12-07T08:34:01.792Z,11.17
2018-12-07T08:36:28.394Z,8.37
2018-12-07T08:38:55.019Z,10.97
2018-12-07T08:41:21.626Z,11.03
2018-12-07T08:43:48.309Z,11.17
2018-12-07T08:46:14.937Z,9.03
2018-12-07T08:48:41.648Z,10.33
2018-12-07T08:51:08.288Z,5.50
2018-12-07T08:53:34.928Z,7.47
2018-12-07T08:56:01.566Z,9.83
2018-12-07T08:58:28.205Z,14.43
2018-12-07T09:00:54.841Z,9.53
2018-12-07T09:03:21.461Z,10.03
2018-12-07T09:05:48.125Z,8.47
2018-12-07T09:08:15.440Z,8.83
2018-12-07T09:10:42.377Z,9.30
2018-12-07T09:13:09.023Z,7.93
2018-12-07T09:15:35.635Z,7.93
2018-12-07T09:18:02.345Z,7.33
2018-12-07T09:20:28.984Z,9.10
2018-12-07T09:22:55.621Z,10.83
2018-12-07T09:25:22.263Z,9.23
2018-12-07T09:27:48.908Z,9.07
2018-12-07T09:30:15.533Z,7.40
2018-12-07T09:32:42.164Z,12.03
2018-12-07T09:35:08.773Z,8.70
2018-12-07T09:37:35.460Z,9.60
2018-12-07T09:40:02.140Z,12.00
2018-12-07T09:42:28.821Z,7.63
2018-12-07T09:44:55.472Z,10.07
2018-12-07T09:47:22.113Z,5.60
2018-12-07T09:49:48.747Z,7.30
2018-12-07T09:52:15.372Z,9.50
2018-12-07T09:54:42.028Z,7.80
2018-12-07T09:57:08.648Z,5.57
2018-12-07T09:59:35.309Z,7.70
2018-12-07T10:02:02.153Z,8.63
2018-12-07T10:04:28.795Z,7.30
2018-12-07T10:06:55.433Z,4.23
2018-12-07T10:09:22.071Z,6.87
2018-12-07T10:11:48.811Z,5.40
2018-12-07T10:14:15.444Z,3.50
2018-12-07T10:16:42.086Z,5.80
2018-12-07T10:19:08.720Z,8.23
2018-12-07T10:21:35.360Z,3.83
2018-12-07T10:24:02.002Z,4.87
2018-12-07T10:26:28.602Z,6.90
2018-12-07T10:28:55.250Z,6.13
2018-12-07T10:31:21.854Z,9.47
2018-12-07T10:33:48.464Z,6.97
2018-12-07T10:36:15.097Z,6.70
2018-12-07T10:38:41.738Z,6.73
2018-12-07T10:41:08.921Z,5.03
2018-12-07T10:43:35.624Z,4.60
2018-12-07T10:46:02.268Z,10.80
2018-12-07T10:48:28.982Z,5.80
2018-12-07T10:50:55.650Z,9.03
2018-12-07T10:53:22.304Z,5.90
2018-12-07T10:55:48.944Z,8.13
2018-12-07T10:58:15.560Z,10.30
2018-12-07T11:00:48.088Z,7.80
2018-12-07T11:03:20.578Z,5.37
2018-12-07T11:05:52.980Z,6.93
2018-12-07T11:08:25.329Z,10.20
2018-12-07T11:10:55.367Z,4.80
2018-12-07T11:13:27.868Z,8.10
2018-12-07T11:16:00.408Z,16.90
2018-12-07T11:18:39.929Z,4.47
2018-12-07T11:21:12.367Z,3.43
2018-12-07T11:23:44.686Z,5.87
2018-12-07T11:26:17.175Z,9.30
2018-12-07T11:28:49.642Z,6.63
2018-12-07T11:34:18.577Z,4.90
2018-12-07T11:36:45.253Z,9.57
2018-12-07T11:39:12.726Z,5.17
2018-12-07T11:41:39.497Z,9.23
2018-12-07T11:44:06.133Z,6.50
2018-12-07T11:46:32.762Z,3.30
2018-12-07T11:48:59.365Z,4.23
2018-12-07T11:51:26.110Z,10.60
2018-12-07T11:53:52.778Z,4.07
2018-12-07T11:56:19.420Z,5.87
2018-12-07T11:58:46.104Z,6.87
2018-12-07T12:01:12.710Z,6.23
2018-12-07T12:03:39.349Z,2.67
2018-12-07T12:06:05.956Z,3.93
2018-12-07T12:08:32.562Z,5.43
2018-12-07T12:10:59.185Z,3.47
2018-12-07T12:13:25.813Z,6.93
2018-12-07T12:15:52.452Z,4.87
2018-12-07T12:18:19.086Z,5.80
2018-12-07T12:20:45.690Z,5.97
2018-12-07T12:23:12.373Z,4.70
2018-12-07T12:25:38.978Z,3.57
2018-12-07T12:28:05.668Z,2.50
2018-12-07T12:30:32.322Z,2.03
2018-12-07T12:32:58.951Z,4.93
2018-12-07T12:35:25.588Z,2.23
2018-12-07T12:37:52.195Z,3.57
2018-12-07T12:40:18.867Z,4.60
2018-12-07T12:42:45.501Z,4.90
2018-12-07T12:45:12.155Z,4.20
2018-12-07T12:47:38.789Z,1.70
2018-12-07T12:50:07.424Z,6.30
2018-12-07T12:52:34.110Z,3.70
2018-12-07T12:55:00.875Z,2.23
2018-12-07T12:57:27.472Z,2.93
2018-12-07T12:59:54.109Z,2.80
2018-12-07T13:02:20.729Z,3.63
2018-12-07T13:04:47.358Z,4.00
2018-12-07T13:07:13.969Z,2.60
2018-12-07T13:09:40.578Z,1.50
2018-12-07T13:12:07.222Z,3.83
2018-12-07T13:14:33.861Z,3.90
2018-12-07T13:17:00.499Z,3.53
2018-12-07T13:19:27.240Z,3.10
2018-12-07T13:21:53.876Z,2.73
2018-12-07T13:24:20.525Z,4.07
2018-12-07T13:26:47.264Z,5.17
2018-12-07T13:29:13.928Z,2.80
2018-12-07T13:31:40.537Z,2.47
2018-12-07T13:34:07.160Z,5.70
2018-12-07T13:36:33.789Z,2.80
2018-12-07T13:39:00.393Z,1.80
2018-12-07T13:41:27.629Z,1.70
2018-12-07T13:43:54.652Z,3.20
2018-12-07T13:46:21.644Z,1.30
2018-12-07T13:48:48.538Z,1.70
2018-12-07T13:51:15.385Z,1.40
2018-12-07T13:53:42.136Z,1.73
2018-12-07T13:56:16.142Z,2.47
2018-12-07T13:58:37.561Z,2.00
2018-12-07T14:01:04.169Z,1.67
2018-12-07T14:03:30.777Z,1.57
2018-12-07T14:05:57.754Z,1.33
2018-12-07T14:08:24.607Z,1.37
2018-12-07T14:10:51.370Z,2.63
2018-12-07T14:13:18.211Z,1.67
2018-12-07T14:15:44.868Z,2.03
2018-12-07T14:18:11.633Z,3.00
2018-12-07T14:20:38.389Z,1.63
2018-12-07T14:23:05.124Z,1.43
2018-12-07T14:25:31.859Z,2.17
2018-12-07T14:27:58.552Z,1.90
2018-12-07T14:30:25.276Z,2.10
2018-12-07T14:32:52.005Z,2.20
2018-12-07T14:35:18.717Z,1.27
2018-12-07T14:37:45.655Z,2.73
2018-12-07T14:40:12.623Z,0.70
2018-12-07T14:42:39.432Z,4.40
2018-12-07T14:45:06.300Z,2.53
2018-12-07T14:47:33.062Z,3.10
2018-12-07T14:49:59.943Z,1.90
2018-12-07T14:52:26.760Z,1.30
2018-12-07T14:54:53.555Z,0.70
2018-12-07T14:57:20.383Z,2.43
2018-12-07T14:59:47.243Z,1.67
2018-12-07T15:02:14.125Z,0.90
2018-12-07T15:04:40.953Z,0.97
2018-12-07T15:07:07.590Z,2.83
2018-12-07T15:09:34.290Z,3.33
2018-12-07T15:12:01.555Z,1.10
2018-12-07T15:14:28.335Z,1.83
2018-12-07T15:16:55.003Z,2.67
2018-12-07T15:19:21.660Z,1.07
2018-12-07T15:21:48.427Z,2.80
2018-12-07T15:24:15.101Z,1.63
2018-12-07T15:26:41.897Z,1.30
2018-12-07T15:29:09.019Z,1.40
2018-12-07T15:31:35.913Z,2.50
2018-12-07T15:34:02.656Z,1.43
2018-12-07T15:36:29.376Z,2.07
2018-12-07T15:38:56.135Z,1.60
2018-12-07T15:41:23.108Z,2.03
2018-12-07T15:43:49.802Z,0.90
2018-12-07T15:46:16.738Z,1.00
2018-12-07T15:48:43.706Z,1.90
2018-12-07T15:51:10.609Z,2.73
2018-12-07T15:53:37.314Z,0.90
2018-12-07T15:56:04.263Z,2.03
2018-12-07T15:58:31.176Z,1.43
2018-12-07T16:00:58.083Z,0.80
2018-12-07T16:03:24.887Z,1.20
2018-12-07T16:05:51.661Z,1.50
2018-12-07T16:08:24.988Z,1.10
2018-12-07T16:10:49.315Z,7.60
2018-12-07T16:13:15.814Z,1.23
2018-12-07T16:15:42.513Z,2.40
2018-12-07T16:18:09.850Z,1.10
2018-12-07T16:20:36.836Z,1.17
2018-12-07T16:23:03.453Z,3.83
2018-12-07T16:25:30.098Z,1.27
2018-12-07T16:27:56.904Z,1.23
2018-12-07T16:30:23.703Z,0.90
2018-12-07T16:32:50.388Z,3.00
2018-12-07T16:35:17.292Z,0.90
2018-12-07T16:37:44.227Z,1.57
2018-12-07T16:40:11.041Z,1.40
2018-12-07T16:42:38.018Z,1.60
2018-12-07T16:45:05.268Z,3.17
2018-12-07T16:47:32.168Z,3.20
2018-12-07T16:49:59.016Z,1.23
2018-12-07T16:52:26.010Z,1.20
2018-12-07T16:54:52.782Z,1.87
2018-12-07T16:57:19.639Z,2.93
2018-12-07T16:59:46.345Z,1.70
2018-12-07T17:02:13.088Z,5.27
2018-12-07T17:04:39.865Z,4.60
2018-12-07T17:07:06.614Z,4.37
2018-12-07T17:09:33.276Z,4.10
2018-12-07T17:11:59.924Z,1.63
2018-12-07T17:14:26.742Z,2.30
2018-12-07T17:16:53.485Z,5.00
2018-12-07T17:19:20.173Z,2.00
2018-12-07T17:24:19.973Z,7.40
2018-12-07T17:26:46.903Z,7.07
2018-12-07T17:29:13.613Z,4.43
2018-12-07T17:31:40.514Z,1.60
2018-12-07T17:34:07.443Z,2.23
2018-12-07T17:36:35.045Z,3.53
2018-12-07T17:39:02.397Z,5.07
2018-12-07T17:41:29.247Z,2.60
2018-12-07T17:43:56.139Z,1.50
2018-12-07T17:46:23.079Z,1.80
2018-12-07T17:48:49.980Z,2.73
2018-12-07T17:51:16.701Z,2.23
2018-12-07T17:53:43.436Z,2.90
2018-12-07T17:56:10.293Z,2.03
2018-12-07T17:58:37.399Z,2.20
2018-12-07T18:01:04.205Z,2.40
2018-12-07T18:03:30.826Z,1.77
2018-12-07T18:05:57.576Z,2.40
2018-12-07T18:08:25.115Z,2.77
2018-12-07T18:10:51.914Z,1.53
2018-12-07T18:13:18.868Z,2.97
2018-12-07T18:15:45.925Z,2.70
2018-12-07T18:18:12.731Z,2.70
2018-12-07T18:20:39.478Z,1.40
2018-12-07T18:23:06.840Z,2.23
2018-12-07T18:25:34.014Z,2.17
2018-12-07T18:28:01.198Z,1.50
2018-12-07T18:30:28.172Z,1.60
2018-12-07T18:32:55.092Z,1.60
2018-12-07T18:35:22.523Z,1.83
2018-12-07T18:37:49.888Z,5.60
2018-12-07T18:40:16.862Z,1.43
2018-12-07T18:42:43.942Z,1.43
2018-12-07T18:45:10.849Z,3.57
2018-12-07T18:47:37.850Z,1.40
2018-12-07T18:50:05.774Z,3.50
2018-12-07T18:52:32.598Z,1.70
2018-12-07T18:54:59.761Z,1.10
2018-12-07T18:57:26.473Z,1.40
2018-12-07T18:59:54.210Z,1.27
2018-12-07T19:02:21.772Z,1.93
2018-12-07T19:04:50.577Z,3.70
2018-12-07T19:07:18.334Z,1.07
2018-12-07T19:09:45.750Z,1.03
2018-12-07T19:12:13.304Z,1.53
2018-12-07T19:14:40.215Z,1.23
2018-12-07T19:17:07.433Z,3.50
2018-12-07T19:19:34.964Z,1.00
2018-12-07T19:22:02.874Z,0.80
2018-12-07T19:24:30.154Z,0.55
2018-12-07T19:26:57.073Z,1.50
2018-12-07T19:29:23.855Z,17.20
2018-12-07T19:31:50.850Z,2.45
2018-12-07T19:34:17.787Z,5.83
2018-12-07T19:36:44.572Z,3.97
2018-12-07T19:39:11.438Z,2.10
2018-12-07T19:41:38.147Z,3.97
2018-12-07T19:44:05.025Z,3.97
2018-12-07T19:46:31.887Z,2.13
2018-12-07T19:48:58.654Z,4.60
2018-12-07T19:51:25.393Z,2.30
2018-12-07T19:53:52.302Z,1.10
2018-12-07T19:56:19.173Z,1.00
2018-12-07T19:58:45.887Z,2.20
2018-12-07T20:01:12.614Z,1.60
2018-12-07T20:03:39.508Z,2.10
2018-12-07T20:06:06.983Z,1.57
2018-12-07T20:08:34.017Z,2.50
2018-12-07T20:11:00.741Z,4.10
2018-12-07T20:13:27.482Z,3.10
2018-12-07T20:15:54.239Z,2.90
2018-12-07T20:18:21.167Z,2.60
2018-12-07T20:20:47.896Z,4.10
2018-12-07T20:23:14.558Z,6.70
2018-12-07T20:25:41.257Z,3.40
2018-12-07T20:28:08.176Z,1.33
2018-12-07T20:30:34.926Z,1.70
2018-12-07T20:33:02.361Z,4.57
2018-12-07T20:35:29.082Z,2.03
2018-12-07T20:37:56.156Z,2.93
2018-12-07T20:40:22.975Z,1.43
2018-12-07T20:42:50.175Z,2.33
2018-12-07T20:45:18.577Z,3.93
2018-12-07T20:47:45.396Z,2.47
2018-12-07T20:50:12.265Z,3.40
2018-12-07T20:52:39.228Z,1.53
2018-12-07T20:55:06.207Z,2.77
2018-12-07T20:57:32.991Z,2.20
2018-12-07T20:59:59.866Z,4.43
2018-12-07T21:02:26.750Z,1.23
2018-12-07T21:04:54.267Z,1.50
2018-12-07T21:07:29.213Z,2.23
2018-12-07T21:13:11.415Z,1.10
2018-12-07T21:15:38.461Z,2.37
2018-12-07T21:18:05.253Z,0.93
2018-12-07T21:20:32.292Z,2.57
2018-12-07T21:22:59.105Z,1.73
2018-12-07T21:25:26.280Z,4.97
2018-12-07T21:27:53.439Z,4.17
2018-12-07T21:30:26.567Z,3.93
2018-12-07T21:32:53.245Z,2.63
2018-12-07T21:35:19.953Z,3.33
2018-12-07T21:37:46.806Z,3.57
2018-12-07T21:40:13.755Z,3.43
2018-12-07T21:42:40.638Z,4.80
2018-12-07T21:45:07.573Z,4.90
2018-12-07T21:47:37.736Z,6.00
2018-12-07T21:50:06.329Z,3.60
2018-12-07T21:52:33.016Z,5.80
2018-12-07T21:54:59.653Z,6.90
2018-12-07T21:57:26.420Z,6.60
2018-12-07T21:59:53.317Z,4.33
2018-12-07T22:02:20.250Z,7.03
2018-12-07T22:04:48.663Z,8.53
2018-12-07T22:07:15.537Z,5.90
2018-12-07T22:09:43.224Z,6.13
2018-12-07T22:12:10.576Z,8.33
2018-12-07T22:14:38.071Z,7.20
2018-12-07T22:17:05.881Z,6.73
2018-12-07T22:19:33.537Z,2.93
2018-12-07T22:22:01.268Z,3.90
2018-12-07T22:24:28.981Z,10.03
2018-12-07T22:26:56.224Z,4.80
2018-12-07T22:29:23.438Z,8.47
2018-12-07T22:31:50.537Z,11.23
2018-12-07T22:34:17.244Z,6.93
2018-12-07T22:36:44.131Z,5.00
2018-12-07T22:39:11.025Z,10.53
2018-12-07T22:41:38.041Z,14.07
2018-12-07T22:44:04.861Z,4.93
2018-12-07T22:46:31.526Z,14.40
2018-12-07T22:48:58.146Z,7.47
2018-12-07T22:51:24.857Z,11.33
2018-12-07T22:53:51.488Z,6.67
2018-12-07T22:56:18.101Z,11.10
2018-12-07T22:58:44.769Z,7.93
2018-12-07T23:01:11.420Z,9.13
2018-12-07T23:03:38.052Z,6.90
2018-12-07T23:06:04.740Z,8.80
2018-12-07T23:08:31.347Z,5.07
2018-12-07T23:10:58.057Z,7.90
2018-12-07T23:13:25.697Z,7.73
2018-12-07T23:15:52.565Z,11.10
2018-12-07T23:18:19.204Z,6.07
2018-12-07T23:20:45.949Z,8.30
2018-12-07T23:23:12.561Z,10.93
2018-12-07T23:25:39.188Z,9.40
2018-12-07T23:28:05.849Z,10.50
2018-12-07T23:30:32.496Z,10.03
2018-12-07T23:32:59.109Z,8.67
2018-12-07T23:35:25.740Z,8.80
2018-12-07T23:37:52.417Z,9.80
2018-12-07T23:40:19.069Z,8.73
2018-12-07T23:42:45.673Z,11.93
2018-12-07T23:45:12.520Z,10.90
2018-12-07T23:47:39.481Z,7.23
2018-12-07T23:50:06.736Z,13.33
2018-12-07T23:52:33.372Z,7.80
2018-12-07T23:55:00.017Z,6.03
2018-12-07T23:57:26.647Z,13.33
2018-12-07T23:59:53.308Z,11.97
